Keyser, West Virginia
Current Conditions -  °F | °C
As of 11:31 AM on Wednesday 22 Oct 2014 (Local Time) from KCBE Reporting Station
Broken Clouds Broken Clouds  
Wind Chill: 54°   Ceiling: 2200
Heat Index: 54°   Visibility: 10mi
Dew Point: 45°   Wind: 15mph
Humidity: 72%   Direction: 310°NW
Pressure: 30.1"   Gusts: 22mph
Location:  39.44°N, 78.98°W
Report Text: KCBE 221531Z AUTO 31013G19KT 10SM BKN022 BKN030 BKN036 12/07 A3010 RMK AO1
Loading
Personal Weather Stations






























Interactive Weather Map
Tropical Storm Tracking
New forecast layout! Learn more

10-Day Weather Forecast

Advertisements
Track Severe Weather on mobile